createdAt,value
2019-01-11T00:01:25.063Z,6.23
2019-01-11T00:04:06.082Z,4.77
2019-01-11T00:06:46.181Z,5.10
2019-01-11T00:09:26.015Z,6.37
2019-01-11T00:12:05.887Z,5.50
2019-01-11T00:14:45.942Z,5.47
2019-01-11T00:17:26.437Z,6.20
2019-01-11T00:20:07.713Z,7.00
2019-01-11T00:22:48.532Z,6.53
2019-01-11T00:28:27.594Z,7.43
2019-01-11T00:31:07.908Z,7.20
2019-01-11T00:33:48.181Z,6.23
2019-01-11T00:36:28.893Z,6.27
2019-01-11T00:39:08.939Z,6.83
2019-01-11T00:41:48.788Z,7.40
2019-01-11T00:44:28.902Z,6.53
2019-01-11T00:47:08.927Z,8.43
2019-01-11T00:49:49.782Z,6.20
2019-01-11T00:52:30.341Z,5.63
2019-01-11T00:55:10.549Z,8.97
2019-01-11T00:57:50.830Z,7.50
2019-01-11T01:00:30.842Z,6.83
2019-01-11T01:03:10.886Z,6.77
2019-01-11T01:05:50.893Z,6.93
2019-01-11T01:08:31.062Z,6.97
2019-01-11T01:11:11.265Z,6.70
2019-01-11T01:13:51.497Z,5.20
2019-01-11T01:16:31.453Z,7.83
2019-01-11T01:19:11.482Z,7.03
2019-01-11T01:21:51.598Z,7.70
2019-01-11T01:24:31.558Z,8.53
2019-01-11T01:27:11.463Z,7.20
2019-01-11T01:29:51.494Z,7.03
2019-01-11T01:32:31.384Z,8.60
2019-01-11T01:35:11.390Z,8.97
2019-01-11T01:37:51.291Z,7.50
2019-01-11T01:40:31.327Z,10.10
2019-01-11T01:43:11.292Z,8.63
2019-01-11T01:45:51.430Z,8.50
2019-01-11T01:48:32.458Z,8.07
2019-01-11T01:51:13.612Z,8.00
2019-01-11T01:53:53.811Z,7.40
2019-01-11T01:56:33.823Z,14.87
2019-01-11T01:59:13.837Z,6.93
2019-01-11T02:01:53.697Z,8.73
2019-01-11T02:04:33.908Z,9.20
2019-01-11T02:07:13.862Z,10.53
2019-01-11T02:09:53.926Z,9.07
2019-01-11T02:12:33.922Z,10.43
2019-01-11T02:15:14.889Z,10.43
2019-01-11T02:17:55.084Z,7.60
2019-01-11T02:20:34.943Z,9.20
2019-01-11T02:23:15.970Z,8.77
2019-01-11T02:25:56.225Z,6.60
2019-01-11T02:28:36.293Z,7.43
2019-01-11T02:31:16.199Z,6.83
2019-01-11T02:33:56.355Z,10.67
2019-01-11T02:36:36.238Z,7.13
2019-01-11T02:39:16.263Z,7.47
2019-01-11T02:41:57.451Z,8.30
2019-01-11T02:44:37.469Z,9.33
2019-01-11T02:47:17.699Z,7.40
2019-01-11T02:49:57.687Z,6.37
2019-01-11T02:52:38.123Z,8.07
2019-01-11T02:55:17.857Z,9.63
2019-01-11T02:57:57.904Z,10.77
2019-01-11T03:00:38.208Z,11.27
2019-01-11T03:03:18.074Z,8.67
2019-01-11T03:05:58.168Z,9.00
2019-01-11T03:08:38.107Z,8.07
2019-01-11T03:11:18.072Z,9.40
2019-01-11T03:13:58.120Z,10.30
2019-01-11T03:16:38.170Z,9.83
2019-01-11T03:19:18.386Z,8.70
2019-01-11T03:21:58.393Z,9.93
2019-01-11T03:24:38.570Z,9.47
2019-01-11T03:27:18.437Z,7.73
2019-01-11T03:29:58.619Z,11.13
2019-01-11T03:32:38.741Z,11.10
2019-01-11T03:35:20.210Z,10.47
2019-01-11T03:38:00.736Z,10.00
2019-01-11T03:40:40.777Z,9.17
2019-01-11T03:43:08.550Z,9.97
2019-01-11T03:45:49.054Z,9.80
2019-01-11T03:48:28.874Z,9.00
2019-01-11T03:51:08.915Z,12.00
2019-01-11T03:53:48.840Z,11.33
2019-01-11T03:56:28.866Z,9.00
2019-01-11T03:59:09.108Z,10.13
2019-01-11T04:01:49.066Z,12.37
2019-01-11T04:04:29.370Z,9.83
2019-01-11T04:07:09.369Z,12.33
2019-01-11T04:09:49.644Z,11.13
2019-01-11T04:12:29.441Z,10.70
2019-01-11T04:15:10.211Z,11.07
2019-01-11T04:18:09.975Z,11.97
2019-01-11T04:20:50.694Z,11.50
2019-01-11T04:23:30.864Z,9.47
2019-01-11T04:26:10.936Z,12.00
2019-01-11T04:28:51.050Z,10.90
2019-01-11T04:31:31.183Z,11.57
2019-01-11T04:34:11.514Z,9.97
2019-01-11T04:36:51.439Z,12.57
2019-01-11T04:39:31.575Z,10.37
2019-01-11T04:42:12.204Z,12.53
2019-01-11T04:44:52.612Z,13.40
2019-01-11T04:47:32.841Z,11.00
2019-01-11T04:50:12.836Z,11.93
2019-01-11T04:52:52.885Z,11.87
2019-01-11T04:55:32.764Z,11.23
2019-01-11T04:58:12.785Z,11.90
2019-01-11T05:00:53.140Z,10.47
2019-01-11T05:03:33.757Z,13.23
2019-01-11T05:06:14.058Z,11.87
2019-01-11T05:08:54.181Z,12.03
2019-01-11T05:11:34.299Z,10.23
2019-01-11T05:14:14.320Z,9.13
2019-01-11T05:16:54.310Z,11.67
2019-01-11T05:19:34.485Z,12.00
2019-01-11T05:22:14.473Z,11.47
2019-01-11T05:24:54.398Z,10.03
2019-01-11T05:27:34.377Z,11.40
2019-01-11T05:30:14.635Z,9.90
2019-01-11T05:32:42.334Z,10.73
2019-01-11T05:35:22.858Z,9.57
2019-01-11T05:38:02.994Z,10.30
2019-01-11T05:40:42.949Z,10.57
2019-01-11T05:43:22.927Z,10.50
2019-01-11T05:46:04.067Z,10.07
2019-01-11T05:48:43.983Z,11.53
2019-01-11T05:51:23.990Z,9.53
2019-01-11T05:54:04.106Z,9.60
2019-01-11T05:56:44.172Z,11.73
2019-01-11T05:59:24.307Z,11.17
2019-01-11T06:02:04.311Z,10.07
2019-01-11T06:04:47.073Z,12.00
2019-01-11T06:07:31.370Z,11.53
2019-01-11T06:10:13.912Z,10.93
2019-01-11T06:15:53.014Z,10.93
2019-01-11T06:18:33.100Z,12.77
2019-01-11T06:21:13.542Z,12.37
2019-01-11T06:23:53.321Z,13.90
2019-01-11T06:26:33.342Z,11.03
2019-01-11T06:29:13.286Z,14.03
2019-01-11T06:31:54.540Z,13.30
2019-01-11T06:34:34.744Z,12.27
2019-01-11T06:37:14.669Z,12.80
2019-01-11T06:39:54.938Z,13.43
2019-01-11T06:42:34.882Z,12.30
2019-01-11T06:45:14.833Z,12.63
2019-01-11T06:47:54.770Z,12.60
2019-01-11T06:50:36.593Z,14.83
2019-01-11T06:53:16.950Z,12.43
2019-01-11T06:55:57.148Z,12.67
2019-01-11T06:58:37.106Z,12.57
2019-01-11T07:01:17.057Z,13.13
2019-01-11T07:03:57.237Z,13.30
2019-01-11T07:06:37.455Z,15.63
2019-01-11T07:09:17.610Z,13.40
2019-01-11T07:11:57.979Z,13.17
2019-01-11T07:14:38.553Z,14.57
2019-01-11T07:17:19.214Z,13.30
2019-01-11T07:20:05.365Z,12.07
2019-01-11T07:22:41.405Z,15.27
2019-01-11T07:25:21.585Z,15.63
2019-01-11T07:28:01.980Z,12.50
2019-01-11T07:33:59.932Z,15.47
2019-01-11T07:36:45.504Z,14.37
2019-01-11T07:39:27.618Z,16.53
2019-01-11T07:42:08.189Z,12.50
2019-01-11T07:44:48.122Z,14.93
2019-01-11T07:47:28.138Z,13.53
2019-01-11T07:50:09.336Z,14.57
2019-01-11T07:52:49.375Z,13.50
2019-01-11T07:55:29.364Z,15.10
2019-01-11T07:58:09.248Z,12.57
2019-01-11T08:00:49.433Z,14.77
2019-01-11T08:03:29.315Z,12.53
2019-01-11T08:06:09.446Z,13.63
2019-01-11T08:08:50.658Z,11.40
2019-01-11T08:11:30.662Z,11.00
2019-01-11T08:14:10.594Z,15.63
2019-01-11T08:16:50.574Z,11.80
2019-01-11T08:19:30.729Z,13.50
2019-01-11T08:25:56.418Z,14.93
2019-01-11T08:28:40.078Z,13.60
2019-01-11T08:31:20.502Z,13.60
2019-01-11T08:34:00.533Z,15.50
2019-01-11T08:36:40.745Z,14.80
2019-01-11T08:39:20.766Z,15.53
2019-01-11T08:42:00.869Z,13.17
2019-01-11T08:44:40.963Z,12.57
2019-01-11T08:47:21.069Z,15.53
2019-01-11T08:50:01.730Z,15.70
2019-01-11T08:52:42.821Z,14.00
2019-01-11T08:55:22.886Z,18.33
2019-01-11T08:58:05.545Z,16.97
2019-01-11T09:00:45.990Z,15.57
2019-01-11T09:03:26.674Z,20.63
2019-01-11T09:06:06.785Z,16.87
2019-01-11T09:08:46.747Z,16.23
2019-01-11T09:11:26.837Z,17.17
2019-01-11T09:14:08.865Z,16.30
2019-01-11T09:19:52.695Z,16.47
2019-01-11T09:22:32.549Z,17.23
2019-01-11T09:25:12.693Z,18.20
2019-01-11T09:27:52.822Z,16.83
2019-01-11T09:30:32.746Z,17.93
2019-01-11T09:33:12.842Z,20.83
2019-01-11T09:35:53.006Z,19.43
2019-01-11T09:38:33.047Z,21.83
2019-01-11T09:41:13.081Z,19.60
2019-01-11T09:43:53.030Z,19.87
2019-01-11T09:46:33.277Z,18.77
2019-01-11T09:49:13.461Z,20.37
2019-01-11T09:51:53.663Z,23.17
2019-01-11T09:54:33.810Z,21.47
2019-01-11T09:57:13.806Z,20.60
2019-01-11T09:59:54.087Z,21.30
2019-01-11T10:02:44.649Z,20.87
2019-01-11T10:05:25.153Z,21.40
2019-01-11T10:08:05.198Z,18.77
2019-01-11T10:10:45.485Z,22.40
2019-01-11T10:13:25.402Z,17.80
2019-01-11T10:16:08.698Z,19.40
2019-01-11T10:18:48.496Z,17.87
2019-01-11T10:21:28.702Z,21.43
2019-01-11T10:24:08.650Z,19.37
2019-01-11T10:26:48.886Z,20.17
2019-01-11T10:29:29.001Z,17.70
2019-01-11T10:32:09.397Z,22.07
2019-01-11T10:34:49.271Z,18.90
2019-01-11T10:37:29.153Z,19.47
2019-01-11T10:40:09.231Z,18.70
2019-01-11T10:42:49.705Z,22.30
2019-01-11T10:45:30.230Z,21.40
2019-01-11T10:48:10.457Z,24.27
2019-01-11T10:50:50.440Z,20.17
2019-01-11T10:53:30.531Z,20.63
2019-01-11T10:56:10.735Z,19.43
2019-01-11T10:58:51.533Z,18.87
2019-01-11T11:01:31.990Z,19.00
2019-01-11T11:04:12.093Z,19.30
2019-01-11T11:06:52.202Z,15.57
2019-01-11T11:09:32.522Z,21.30
2019-01-11T11:12:16.253Z,16.93
2019-01-11T11:14:56.375Z,17.47
2019-01-11T11:17:36.931Z,18.27
2019-01-11T11:20:16.797Z,16.90
2019-01-11T11:22:57.218Z,21.03
2019-01-11T11:25:37.134Z,19.40
2019-01-11T11:28:17.245Z,20.70
2019-01-11T11:30:57.409Z,16.70
2019-01-11T11:33:37.609Z,17.50
2019-01-11T11:36:17.682Z,21.83
2019-01-11T11:38:59.171Z,16.60
2019-01-11T11:41:39.916Z,16.93
2019-01-11T11:44:20.915Z,19.53
2019-01-11T11:47:00.922Z,18.10
2019-01-11T11:49:41.499Z,18.67
2019-01-11T11:55:03.542Z,20.63
2019-01-11T11:57:43.665Z,19.60
2019-01-11T12:00:27.942Z,16.20
2019-01-11T12:03:07.946Z,20.07
2019-01-11T12:05:48.062Z,20.43
2019-01-11T12:08:28.145Z,20.27
2019-01-11T12:11:08.158Z,17.07
2019-01-11T12:13:48.323Z,15.90
2019-01-11T12:16:28.353Z,17.83
2019-01-11T12:19:08.247Z,19.90
2019-01-11T12:21:48.355Z,17.30
2019-01-11T12:24:16.043Z,20.30
2019-01-11T12:26:56.389Z,18.23
2019-01-11T12:29:36.382Z,22.73
2019-01-11T12:32:19.684Z,19.30
2019-01-11T12:34:47.161Z,18.43
2019-01-11T12:37:27.274Z,17.10
2019-01-11T12:40:07.413Z,16.37
2019-01-11T12:42:47.310Z,17.87
2019-01-11T12:45:27.510Z,17.63
2019-01-11T12:48:07.550Z,16.10
2019-01-11T12:50:51.466Z,16.80
2019-01-11T12:53:31.980Z,17.00
2019-01-11T12:56:12.049Z,19.73
2019-01-11T12:58:51.977Z,20.20
2019-01-11T13:01:32.105Z,17.17
2019-01-11T13:04:12.458Z,19.40
2019-01-11T13:06:52.499Z,19.87
2019-01-11T13:09:32.566Z,19.33
2019-01-11T13:12:00.414Z,22.13
2019-01-11T13:14:40.457Z,22.00
2019-01-11T13:17:20.686Z,23.73
2019-01-11T13:22:59.950Z,20.77
2019-01-11T13:25:40.165Z,20.77
2019-01-11T13:28:20.375Z,20.60
2019-01-11T13:31:00.479Z,22.03
2019-01-11T13:33:40.487Z,20.00
2019-01-11T13:36:22.160Z,20.50
2019-01-11T13:39:04.384Z,24.20
2019-01-11T13:41:45.707Z,23.93
2019-01-11T13:44:25.852Z,21.67
2019-01-11T13:47:05.846Z,20.37
2019-01-11T13:49:45.749Z,29.30
2019-01-11T13:52:25.831Z,22.63
2019-01-11T13:55:06.325Z,26.87
2019-01-11T13:57:46.267Z,21.57
2019-01-11T14:00:26.523Z,21.07
2019-01-11T14:03:06.653Z,22.53
2019-01-11T14:05:46.671Z,23.43
2019-01-11T14:08:26.745Z,26.43
2019-01-11T14:11:06.668Z,23.20
2019-01-11T14:13:48.207Z,24.83
2019-01-11T14:16:28.881Z,27.50
2019-01-11T14:19:08.975Z,20.43
2019-01-11T14:21:49.038Z,22.00
2019-01-11T14:24:29.159Z,23.97
2019-01-11T14:27:09.469Z,24.50
2019-01-11T14:29:49.448Z,20.97
2019-01-11T14:32:30.476Z,22.73
2019-01-11T14:38:13.758Z,20.23
2019-01-11T14:40:54.072Z,20.13
2019-01-11T14:43:33.986Z,21.27
2019-01-11T14:46:01.808Z,20.53
2019-01-11T14:48:48.955Z,22.37
2019-01-11T14:51:29.098Z,21.37
2019-01-11T14:54:09.354Z,21.43
2019-01-11T14:56:49.581Z,18.93
2019-01-11T14:59:29.463Z,19.00
2019-01-11T15:02:09.578Z,21.63
2019-01-11T15:04:49.541Z,19.03
2019-01-11T15:07:29.782Z,19.90
2019-01-11T15:10:10.073Z,17.20
2019-01-11T15:12:50.054Z,17.40
2019-01-11T15:15:30.070Z,20.57
2019-01-11T15:18:10.440Z,18.03
2019-01-11T15:20:50.821Z,18.30
2019-01-11T15:23:35.042Z,19.97
2019-01-11T15:26:15.633Z,19.03
2019-01-11T15:28:55.670Z,18.87
2019-01-11T15:31:35.748Z,16.30
2019-01-11T15:34:15.770Z,22.13
2019-01-11T15:36:56.109Z,20.07
2019-01-11T15:39:23.797Z,22.87
2019-01-11T15:42:10.912Z,16.17
2019-01-11T15:44:51.571Z,18.40
2019-01-11T15:47:19.293Z,23.43
2019-01-11T15:49:46.971Z,22.43
2019-01-11T15:52:33.196Z,19.13
2019-01-11T15:55:09.690Z,18.50
2019-01-11T15:57:49.682Z,19.27
2019-01-11T16:00:29.771Z,20.57
2019-01-11T16:03:09.903Z,21.70
2019-01-11T16:05:50.053Z,20.87
2019-01-11T16:08:30.150Z,21.03
2019-01-11T16:11:10.015Z,22.80
2019-01-11T16:13:49.957Z,20.00
2019-01-11T16:16:29.971Z,21.77
2019-01-11T16:18:57.983Z,20.53
2019-01-11T16:21:37.906Z,24.30
2019-01-11T16:24:18.017Z,23.87
2019-01-11T16:26:58.135Z,22.57
2019-01-11T16:29:38.222Z,23.13
2019-01-11T16:32:18.222Z,24.83
2019-01-11T16:34:58.500Z,22.93
2019-01-11T16:37:38.713Z,21.83
2019-01-11T16:40:18.850Z,24.07
2019-01-11T16:43:00.047Z,22.27
2019-01-11T16:45:40.318Z,21.73
2019-01-11T16:48:23.998Z,20.83
2019-01-11T16:51:05.617Z,22.00
2019-01-11T16:53:45.938Z,22.63
2019-01-11T16:56:26.104Z,42.20
2019-01-11T16:59:07.468Z,23.93
2019-01-11T17:01:47.469Z,19.47
2019-01-11T17:04:28.602Z,18.57
2019-01-11T17:06:56.277Z,18.50
2019-01-11T17:09:43.422Z,17.37
2019-01-11T17:12:11.153Z,17.43
2019-01-11T17:14:38.823Z,17.07
2019-01-11T17:17:06.483Z,18.27
2019-01-11T17:19:34.144Z,16.53
2019-01-11T17:22:01.904Z,17.03
2019-01-11T17:24:29.715Z,16.17
2019-01-11T17:26:57.404Z,16.90
2019-01-11T17:29:25.113Z,18.67
2019-01-11T17:31:52.773Z,20.00
2019-01-11T17:34:20.461Z,20.83
2019-01-11T17:36:48.173Z,18.27
2019-01-11T17:39:15.865Z,20.23
2019-01-11T17:41:43.726Z,25.23
2019-01-11T17:44:11.462Z,22.27
2019-01-11T17:46:39.140Z,18.50
2019-01-11T17:49:06.849Z,21.30
2019-01-11T17:51:34.490Z,21.87
2019-01-11T17:54:02.208Z,25.37
2019-01-11T17:56:30.088Z,22.70
2019-01-11T17:58:57.785Z,21.03
2019-01-11T18:01:25.469Z,23.07
2019-01-11T18:03:53.176Z,20.93
2019-01-11T18:06:21.088Z,23.40
2019-01-11T18:08:48.845Z,22.17
2019-01-11T18:11:16.550Z,23.30
2019-01-11T18:13:44.322Z,22.80
2019-01-11T18:16:11.984Z,24.10
2019-01-11T18:18:39.775Z,27.60
2019-01-11T18:21:07.606Z,26.77
2019-01-11T18:23:35.543Z,23.90
2019-01-11T18:26:03.386Z,24.77
2019-01-11T18:28:31.152Z,23.67
2019-01-11T18:30:58.944Z,25.27
2019-01-11T18:33:26.857Z,26.70
2019-01-11T18:35:54.657Z,27.70
2019-01-11T18:38:22.481Z,26.13
2019-01-11T18:40:50.241Z,24.60
2019-01-11T18:43:18.129Z,26.63
2019-01-11T18:45:45.834Z,25.60
2019-01-11T18:48:13.575Z,26.87
2019-01-11T18:50:41.253Z,27.03
2019-01-11T18:53:13.767Z,28.43
2019-01-11T18:55:38.627Z,26.23
2019-01-11T18:58:06.369Z,24.53
2019-01-11T19:00:34.109Z,26.90
2019-01-11T19:03:01.790Z,25.53
2019-01-11T19:05:29.497Z,22.20
2019-01-11T19:07:57.285Z,24.50
2019-01-11T19:10:25.271Z,21.90
2019-01-11T19:12:53.080Z,28.17
2019-01-11T19:15:23.805Z,25.80
2019-01-11T19:17:51.562Z,23.33
2019-01-11T19:20:21.628Z,24.07
2019-01-11T19:22:49.280Z,23.60
2019-01-11T19:25:16.966Z,26.93
2019-01-11T19:27:57.045Z,27.63
2019-01-11T19:30:36.990Z,25.93
2019-01-11T19:33:17.067Z,25.63
2019-01-11T19:35:58.323Z,22.53
2019-01-11T19:38:38.521Z,22.30
2019-01-11T19:41:20.067Z,24.23
2019-01-11T19:44:01.566Z,20.80
2019-01-11T19:46:43.399Z,23.27
2019-01-11T19:49:24.282Z,22.73
2019-01-11T19:52:04.246Z,23.90
2019-01-11T19:57:25.473Z,19.93
2019-01-11T20:00:05.430Z,19.37
2019-01-11T20:02:46.482Z,22.40
2019-01-11T20:05:26.437Z,19.50
2019-01-11T20:08:07.419Z,19.40
2019-01-11T20:10:47.513Z,18.60
2019-01-11T20:13:27.777Z,17.80
2019-01-11T20:16:08.698Z,18.33
2019-01-11T20:18:49.295Z,17.03
2019-01-11T20:21:29.213Z,16.63
2019-01-11T20:24:09.322Z,18.07
2019-01-11T20:26:49.502Z,17.57
2019-01-11T20:29:29.756Z,18.90
2019-01-11T20:32:09.934Z,16.87
2019-01-11T20:34:49.911Z,19.20
2019-01-11T20:37:30.269Z,17.60
2019-01-11T20:40:10.528Z,21.67
2019-01-11T20:42:50.499Z,18.43
2019-01-11T20:45:30.517Z,19.97
2019-01-11T20:48:10.862Z,21.07
2019-01-11T20:50:51.066Z,18.70
2019-01-11T20:53:42.403Z,19.37
2019-01-11T20:56:23.028Z,17.40
2019-01-11T20:58:54.833Z,16.97
2019-01-11T21:01:26.165Z,19.43
2019-01-11T21:03:54.110Z,20.23
2019-01-11T21:06:21.843Z,19.27
2019-01-11T21:08:49.716Z,20.70
2019-01-11T21:11:17.400Z,20.00
2019-01-11T21:13:45.072Z,20.20
2019-01-11T21:16:12.789Z,19.73
2019-01-11T21:18:40.491Z,18.63
2019-01-11T21:21:08.430Z,18.83
2019-01-11T21:23:36.218Z,21.33
2019-01-11T21:26:04.013Z,17.77
2019-01-11T21:28:31.724Z,19.57
2019-01-11T21:30:59.390Z,19.40
2019-01-11T21:33:27.024Z,20.13
2019-01-11T21:35:54.669Z,17.97
2019-01-11T21:38:22.393Z,17.53
2019-01-11T21:40:51.074Z,21.10
2019-01-11T21:43:18.805Z,17.53
2019-01-11T21:45:46.660Z,20.43
2019-01-11T21:48:14.433Z,17.13
2019-01-11T21:50:42.132Z,18.13
2019-01-11T21:53:09.890Z,19.43
2019-01-11T21:55:38.739Z,19.80
2019-01-11T21:58:06.694Z,18.00
2019-01-11T22:00:45.185Z,17.90
2019-01-11T22:03:17.788Z,17.57
2019-01-11T22:05:45.589Z,20.30
2019-01-11T22:08:13.417Z,20.60
2019-01-11T22:10:41.159Z,21.53
2019-01-11T22:13:08.835Z,18.93
2019-01-11T22:15:36.498Z,19.83
2019-01-11T22:18:16.920Z,19.03
2019-01-11T22:20:56.898Z,19.60
2019-01-11T22:23:37.049Z,19.73
2019-01-11T22:26:16.865Z,21.23
2019-01-11T22:28:57.170Z,17.73
2019-01-11T22:31:37.155Z,17.67
2019-01-11T22:34:21.266Z,17.37
2019-01-11T22:37:01.372Z,21.20
2019-01-11T22:39:41.581Z,19.43
2019-01-11T22:42:21.743Z,17.07
2019-01-11T22:45:01.727Z,17.90
2019-01-11T22:47:42.817Z,23.57
2019-01-11T22:50:22.870Z,21.73
2019-01-11T22:55:31.072Z,19.23
2019-01-11T22:58:11.091Z,19.33
2019-01-11T23:01:17.808Z,20.87
2019-01-11T23:03:58.466Z,19.70
2019-01-11T23:06:38.554Z,19.03
2019-01-11T23:09:18.566Z,22.77
2019-01-11T23:11:58.612Z,21.03
2019-01-11T23:14:38.778Z,19.57
2019-01-11T23:17:18.773Z,18.60
2019-01-11T23:19:58.832Z,21.03
2019-01-11T23:22:39.102Z,20.67
2019-01-11T23:25:19.139Z,20.03
2019-01-11T23:27:59.470Z,23.80
2019-01-11T23:30:39.342Z,23.63
2019-01-11T23:36:00.459Z,24.40
2019-01-11T23:38:40.589Z,24.00
2019-01-11T23:41:20.733Z,27.07
2019-01-11T23:44:01.451Z,22.73
2019-01-11T23:46:41.905Z,26.30
2019-01-11T23:49:22.221Z,24.03
2019-01-11T23:52:02.229Z,26.33
2019-01-11T23:54:42.293Z,24.13
2019-01-11T23:57:22.497Z,24.37
